createdAt,value
2017-09-01T00:00:38.607Z,0
2017-09-01T00:01:52.485Z,0
2017-09-01T00:03:06.080Z,0
2017-09-01T00:04:20.333Z,0
2017-09-01T00:05:34.484Z,0
2017-09-01T00:06:48.489Z,0
2017-09-01T00:08:02.537Z,0
2017-09-01T00:09:16.099Z,0
2017-09-01T00:10:30.508Z,0
2017-09-01T00:11:44.436Z,0
2017-09-01T00:12:58.606Z,0
2017-09-01T00:14:12.889Z,0
2017-09-01T00:15:26.508Z,0
2017-09-01T00:16:40.103Z,0
2017-09-01T00:17:54.098Z,0
2017-09-01T00:19:07.984Z,0
2017-09-01T00:20:22.116Z,0
2017-09-01T00:21:35.715Z,0
2017-09-01T00:22:49.635Z,0
2017-09-01T00:24:03.256Z,0
2017-09-01T00:25:17.257Z,0
2017-09-01T00:26:31.466Z,0
2017-09-01T00:27:45.418Z,0
2017-09-01T00:28:59.342Z,0
2017-09-01T00:30:13.267Z,0
2017-09-01T00:31:27.815Z,0
2017-09-01T00:32:41.697Z,0
2017-09-01T00:33:55.342Z,0
2017-09-01T00:35:09.107Z,0
2017-09-01T00:36:23.055Z,0
2017-09-01T00:37:36.626Z,0
2017-09-01T00:38:50.883Z,0
2017-09-01T00:40:04.525Z,0
2017-09-01T00:41:18.420Z,0
2017-09-01T00:42:32.012Z,0
2017-09-01T00:43:45.946Z,0
2017-09-01T00:44:59.913Z,0
2017-09-01T00:46:14.196Z,0
2017-09-01T00:47:27.801Z,0
2017-09-01T00:48:41.499Z,0
2017-09-01T00:49:55.087Z,0
2017-09-01T00:51:09.033Z,0
2017-09-01T00:52:22.618Z,0
2017-09-01T00:53:36.711Z,0
2017-09-01T00:54:50.288Z,0
2017-09-01T00:56:04.261Z,0
2017-09-01T00:57:19.043Z,0
2017-09-01T00:58:32.634Z,0
2017-09-01T00:59:46.913Z,0
2017-09-01T01:01:00.515Z,0
2017-09-01T01:02:14.105Z,0
2017-09-01T01:03:28.653Z,0
2017-09-01T01:04:42.957Z,0
2017-09-01T01:05:56.582Z,0
2017-09-01T01:07:10.207Z,0
2017-09-01T01:08:23.868Z,0
2017-09-01T01:09:37.772Z,0
2017-09-01T01:10:51.371Z,0
2017-09-01T01:12:05.558Z,0
2017-09-01T01:13:19.480Z,0
2017-09-01T01:14:33.082Z,0
2017-09-01T01:15:46.987Z,0
2017-09-01T01:17:00.683Z,0
2017-09-01T01:18:14.609Z,0
2017-09-01T01:19:28.218Z,0
2017-09-01T01:20:42.156Z,0
2017-09-01T01:21:56.094Z,0
2017-09-01T01:23:09.670Z,0
2017-09-01T01:24:23.581Z,0
2017-09-01T01:25:37.186Z,0
2017-09-01T01:26:50.978Z,0
2017-09-01T01:28:05.215Z,0
2017-09-01T01:29:18.780Z,0
2017-09-01T01:30:32.364Z,0
2017-09-01T01:31:45.933Z,0
2017-09-01T01:32:59.637Z,0
2017-09-01T01:34:13.823Z,0
2017-09-01T01:35:27.730Z,0
2017-09-01T01:36:41.316Z,0
2017-09-01T01:37:55.305Z,0
2017-09-01T01:39:08.908Z,0
2017-09-01T01:40:22.976Z,0
2017-09-01T01:41:36.648Z,0
2017-09-01T01:42:50.267Z,0
2017-09-01T01:44:04.168Z,0
2017-09-01T01:45:17.741Z,0
2017-09-01T01:46:31.638Z,0
2017-09-01T01:47:45.221Z,0
2017-09-01T01:48:58.935Z,0
2017-09-01T01:50:12.515Z,0
2017-09-01T01:51:26.111Z,0
2017-09-01T01:52:40.341Z,0
2017-09-01T01:53:53.878Z,0
2017-09-01T01:55:07.981Z,0
2017-09-01T01:56:21.877Z,0
2017-09-01T01:57:35.461Z,0
2017-09-01T01:58:49.343Z,0
2017-09-01T02:00:02.905Z,0
2017-09-01T02:01:16.454Z,0
2017-09-01T02:02:30.351Z,0
2017-09-01T02:03:43.914Z,0
2017-09-01T02:04:57.804Z,0
2017-09-01T02:06:11.381Z,0
2017-09-01T02:07:25.286Z,0
2017-09-01T02:08:39.047Z,0
2017-09-01T02:09:52.615Z,0
2017-09-01T02:11:06.532Z,0
2017-09-01T02:12:20.114Z,0
2017-09-01T02:13:33.734Z,0
2017-09-01T02:14:47.545Z,0
2017-09-01T02:16:01.126Z,0
2017-09-01T02:17:15.043Z,0
2017-09-01T02:18:28.733Z,0
2017-09-01T02:19:42.666Z,0
2017-09-01T02:20:56.945Z,0
2017-09-01T02:22:10.531Z,0
2017-09-01T02:23:24.465Z,0
2017-09-01T02:24:38.073Z,0
2017-09-01T02:25:51.638Z,0
2017-09-01T02:27:05.217Z,0
2017-09-01T02:28:19.006Z,0
2017-09-01T02:29:33.121Z,0
2017-09-01T02:30:46.694Z,0
2017-09-01T02:32:00.254Z,0
2017-09-01T02:33:13.841Z,0
2017-09-01T02:34:27.415Z,0
2017-09-01T02:35:41.373Z,0
2017-09-01T02:36:54.939Z,0
2017-09-01T02:38:08.727Z,0
2017-09-01T02:39:22.338Z,0
2017-09-01T02:40:36.271Z,0
2017-09-01T02:41:50.148Z,0
2017-09-01T02:43:03.918Z,0
2017-09-01T02:44:17.515Z,0
2017-09-01T02:45:31.081Z,0
2017-09-01T02:46:44.644Z,0
2017-09-01T02:47:58.542Z,0
2017-09-01T02:49:12.115Z,0
2017-09-01T02:50:26.162Z,0
2017-09-01T02:51:39.748Z,0
2017-09-01T02:52:53.654Z,0
2017-09-01T02:54:07.539Z,0
2017-09-01T02:55:21.122Z,0
2017-09-01T02:56:34.684Z,0
2017-09-01T02:57:48.725Z,0
2017-09-01T02:59:02.360Z,0
2017-09-01T03:00:16.254Z,0
2017-09-01T03:01:29.819Z,0
2017-09-01T03:02:43.614Z,0
2017-09-01T03:03:57.191Z,0
2017-09-01T03:05:10.756Z,0
2017-09-01T03:06:25.312Z,0
2017-09-01T03:07:39.032Z,0
2017-09-01T03:08:52.604Z,0
2017-09-01T03:10:06.620Z,0
2017-09-01T03:11:20.596Z,0
2017-09-01T03:12:34.954Z,0
2017-09-01T03:13:48.503Z,0
2017-09-01T03:15:02.070Z,0
2017-09-01T03:16:15.987Z,0
2017-09-01T03:17:29.550Z,0
2017-09-01T03:18:43.415Z,0
2017-09-01T03:19:56.979Z,0
2017-09-01T03:21:10.542Z,0
2017-09-01T03:22:24.387Z,0
2017-09-01T03:23:37.942Z,0
2017-09-01T03:24:51.813Z,0
2017-09-01T03:26:05.388Z,0
2017-09-01T03:27:18.963Z,0
2017-09-01T03:28:32.521Z,0
2017-09-01T03:29:46.084Z,0
2017-09-01T03:31:00.133Z,0
2017-09-01T03:32:13.767Z,0
2017-09-01T03:33:27.294Z,0
2017-09-01T03:34:40.853Z,0
2017-09-01T03:35:54.416Z,0
2017-09-01T03:37:08.643Z,0
2017-09-01T03:38:22.373Z,0
2017-09-01T03:39:35.951Z,0
2017-09-01T03:40:49.529Z,0
2017-09-01T03:42:03.150Z,0
2017-09-01T03:43:17.105Z,0
2017-09-01T03:44:30.665Z,0
2017-09-01T03:45:44.360Z,0
2017-09-01T03:46:57.965Z,0
2017-09-01T03:48:11.677Z,0
2017-09-01T03:49:25.541Z,0
2017-09-01T03:50:39.108Z,0
2017-09-01T03:51:52.702Z,0
2017-09-01T03:53:06.847Z,0
2017-09-01T03:54:20.589Z,0
2017-09-01T03:55:34.454Z,0
2017-09-01T03:56:48.060Z,0
2017-09-01T03:58:01.675Z,0
2017-09-01T03:59:15.255Z,0
2017-09-01T04:00:28.923Z,0
2017-09-01T04:01:42.794Z,0
2017-09-01T04:02:56.370Z,0
2017-09-01T04:04:10.280Z,0
2017-09-01T04:05:23.854Z,0
2017-09-01T04:06:37.772Z,0
2017-09-01T04:07:51.659Z,0
2017-09-01T04:09:05.328Z,0
2017-09-01T04:10:18.907Z,0
2017-09-01T04:11:32.809Z,0
2017-09-01T04:12:46.380Z,0
2017-09-01T04:14:00.295Z,0
2017-09-01T04:15:13.938Z,0
2017-09-01T04:16:27.498Z,4
2017-09-01T04:17:41.428Z,4
2017-09-01T04:18:55.006Z,4
2017-09-01T04:20:08.892Z,4
2017-09-01T04:21:22.790Z,8
2017-09-01T04:22:36.379Z,8
2017-09-01T04:23:50.461Z,8
2017-09-01T04:25:04.023Z,12
2017-09-01T04:26:17.923Z,12
2017-09-01T04:27:31.826Z,12
2017-09-01T04:28:45.402Z,16
2017-09-01T04:29:59.079Z,20
2017-09-01T04:31:12.646Z,24
2017-09-01T04:32:26.531Z,28
2017-09-01T04:33:40.107Z,36
2017-09-01T04:34:53.727Z,36
2017-09-01T04:36:07.356Z,44
2017-09-01T04:37:21.560Z,52
2017-09-01T04:38:35.942Z,56
2017-09-01T04:39:49.606Z,60
2017-09-01T04:41:03.184Z,68
2017-09-01T04:42:17.143Z,80
2017-09-01T04:43:30.760Z,88
2017-09-01T04:44:44.819Z,100
2017-09-01T04:45:58.399Z,120
2017-09-01T04:47:12.030Z,128
2017-09-01T04:48:25.595Z,144
2017-09-01T04:49:39.164Z,160
2017-09-01T04:50:53.063Z,172
2017-09-01T04:52:06.819Z,184
2017-09-01T04:53:20.508Z,196
2017-09-01T04:54:34.618Z,212
2017-09-01T04:55:48.756Z,224
2017-09-01T04:57:02.605Z,232
2017-09-01T04:58:16.178Z,248
2017-09-01T04:59:30.075Z,260
2017-09-01T05:00:44.391Z,276
2017-09-01T05:01:57.973Z,292
2017-09-01T05:03:12.050Z,308
2017-09-01T05:04:25.720Z,324
2017-09-01T05:05:39.427Z,340
2017-09-01T05:06:53.064Z,364
2017-09-01T05:08:06.689Z,388
2017-09-01T05:09:20.991Z,416
2017-09-01T05:10:34.634Z,456
2017-09-01T05:11:48.276Z,496
2017-09-01T05:13:02.279Z,536
2017-09-01T05:14:16.260Z,552
2017-09-01T05:15:30.467Z,556
2017-09-01T05:16:44.147Z,556
2017-09-01T05:17:57.865Z,564
2017-09-01T05:19:11.862Z,588
2017-09-01T05:20:25.486Z,616
2017-09-01T05:21:39.414Z,632
2017-09-01T05:22:53.043Z,656
2017-09-01T05:24:06.690Z,660
2017-09-01T05:25:20.353Z,684
2017-09-01T05:26:33.993Z,692
2017-09-01T05:27:48.236Z,688
2017-09-01T05:29:01.887Z,700
2017-09-01T05:30:15.879Z,712
2017-09-01T05:31:29.519Z,732
2017-09-01T05:32:43.748Z,780
2017-09-01T05:33:57.711Z,860
2017-09-01T05:35:11.346Z,948
2017-09-01T05:36:25.020Z,1076
2017-09-01T05:37:38.710Z,1212
2017-09-01T05:38:53.071Z,1328
2017-09-01T05:40:07.337Z,1408
2017-09-01T05:41:21.389Z,1520
2017-09-01T05:42:35.015Z,1604
2017-09-01T05:43:48.631Z,1680
2017-09-01T05:45:02.474Z,1708
2017-09-01T05:46:16.364Z,1728
2017-09-01T05:47:30.031Z,1724
2017-09-01T05:48:43.675Z,1764
2017-09-01T05:49:57.358Z,1896
2017-09-01T05:51:11.029Z,2072
2017-09-01T05:52:25.572Z,2156
2017-09-01T05:53:39.241Z,2236
2017-09-01T05:54:53.241Z,2292
2017-09-01T05:56:07.180Z,2328
2017-09-01T05:57:21.371Z,2384
2017-09-01T05:58:35.298Z,2376
2017-09-01T05:59:49.004Z,2504
2017-09-01T06:01:02.620Z,2728
2017-09-01T06:02:16.269Z,2776
2017-09-01T06:03:30.211Z,3000
2017-09-01T06:04:44.632Z,3108
2017-09-01T06:05:58.587Z,3344
2017-09-01T06:07:12.716Z,3444
2017-09-01T06:08:26.347Z,3404
2017-09-01T06:09:40.015Z,3384
2017-09-01T06:10:53.947Z,3208
2017-09-01T06:12:07.579Z,3068
2017-09-01T06:13:21.583Z,2936
2017-09-01T06:14:35.540Z,2952
2017-09-01T06:15:49.202Z,2956
2017-09-01T06:17:03.107Z,3032
2017-09-01T06:18:16.753Z,3232
2017-09-01T06:19:30.369Z,3344
2017-09-01T06:20:44.091Z,3380
2017-09-01T06:21:57.719Z,3336
2017-09-01T06:23:11.689Z,3160
2017-09-01T06:24:25.376Z,2992
2017-09-01T06:25:39.025Z,2944
2017-09-01T06:26:52.625Z,2864
2017-09-01T06:28:06.243Z,2808
2017-09-01T06:29:20.359Z,2772
2017-09-01T06:30:34.040Z,2792
2017-09-01T06:31:47.663Z,2832
2017-09-01T06:33:01.632Z,2836
2017-09-01T06:34:15.766Z,2900
2017-09-01T06:35:29.714Z,2972
2017-09-01T06:36:43.368Z,3020
2017-09-01T06:37:57.321Z,3072
2017-09-01T06:39:10.947Z,3288
2017-09-01T06:40:24.618Z,3624
2017-09-01T06:41:39.456Z,3748
2017-09-01T06:42:53.113Z,4016
2017-09-01T06:44:06.944Z,4088
2017-09-01T06:45:20.577Z,4208
2017-09-01T06:46:34.507Z,4460
2017-09-01T06:47:48.440Z,4744
2017-09-01T06:49:02.323Z,4708
2017-09-01T06:50:15.922Z,4600
2017-09-01T06:51:29.920Z,4584
2017-09-01T06:52:43.702Z,4516
2017-09-01T06:53:57.775Z,4348
2017-09-01T06:55:11.403Z,4268
2017-09-01T06:56:25.032Z,4200
2017-09-01T06:57:38.642Z,4276
2017-09-01T06:58:52.230Z,4184
2017-09-01T07:00:06.316Z,4212
2017-09-01T07:01:19.929Z,4216
2017-09-01T07:02:33.515Z,4184
2017-09-01T07:03:47.091Z,4164
2017-09-01T07:05:00.931Z,4152
2017-09-01T07:06:14.535Z,4100
2017-09-01T07:07:28.447Z,4096
2017-09-01T07:08:42.257Z,4128
2017-09-01T07:09:55.827Z,4208
2017-09-01T07:11:09.422Z,4256
2017-09-01T07:12:23.372Z,4264
2017-09-01T07:13:36.994Z,4280
2017-09-01T07:14:50.729Z,4284
2017-09-01T07:16:04.383Z,4336
2017-09-01T07:17:18.322Z,4444
2017-09-01T07:18:32.193Z,4496
2017-09-01T07:19:45.776Z,4500
2017-09-01T07:20:59.379Z,4516
2017-09-01T07:22:13.643Z,4480
2017-09-01T07:23:27.456Z,4456
2017-09-01T07:24:41.713Z,4436
2017-09-01T07:25:55.377Z,4500
2017-09-01T07:27:09.329Z,4596
2017-09-01T07:28:23.138Z,4640
2017-09-01T07:29:36.790Z,4676
2017-09-01T07:30:50.696Z,4680
2017-09-01T07:32:04.344Z,4716
2017-09-01T07:33:17.955Z,4680
2017-09-01T07:34:31.570Z,4712
2017-09-01T07:35:45.159Z,4812
2017-09-01T07:36:59.879Z,4976
2017-09-01T07:38:13.905Z,5104
2017-09-01T07:39:27.518Z,5164
2017-09-01T07:40:41.123Z,5160
2017-09-01T07:41:54.888Z,5104
2017-09-01T07:43:08.864Z,5144
2017-09-01T07:44:22.801Z,5100
2017-09-01T07:45:36.419Z,4988
2017-09-01T07:46:50.343Z,4932
2017-09-01T07:48:04.027Z,4904
2017-09-01T07:49:18.015Z,4980
2017-09-01T07:50:31.784Z,5040
2017-09-01T07:51:45.449Z,5080
2017-09-01T07:52:59.243Z,5152
2017-09-01T07:54:12.864Z,5256
2017-09-01T07:55:26.773Z,5308
2017-09-01T07:56:40.349Z,5316
2017-09-01T07:57:54.006Z,5232
2017-09-01T07:59:08.543Z,5156
2017-09-01T08:00:22.210Z,5132
2017-09-01T08:01:36.193Z,5124
2017-09-01T08:02:49.843Z,5124
2017-09-01T08:04:03.585Z,5164
2017-09-01T08:05:17.194Z,5264
2017-09-01T08:06:31.128Z,5352
2017-09-01T08:07:45.332Z,5532
2017-09-01T08:08:59.808Z,5652
2017-09-01T08:10:13.736Z,5644
2017-09-01T08:11:27.383Z,5656
2017-09-01T08:12:41.039Z,5728
2017-09-01T08:13:55.027Z,5772
2017-09-01T08:15:08.648Z,5940
2017-09-01T08:16:22.264Z,5972
2017-09-01T08:17:35.956Z,5940
2017-09-01T08:18:49.897Z,5924
2017-09-01T08:20:03.872Z,5876
2017-09-01T08:21:17.589Z,5788
2017-09-01T08:22:31.516Z,5804
2017-09-01T08:23:45.525Z,5824
2017-09-01T08:24:59.535Z,5768
2017-09-01T08:26:13.485Z,5872
2017-09-01T08:27:27.622Z,5940
2017-09-01T08:28:41.354Z,5900
2017-09-01T08:29:54.999Z,6052
2017-09-01T08:31:08.620Z,6184
2017-09-01T08:32:22.966Z,6268
2017-09-01T08:33:36.611Z,6344
2017-09-01T08:34:50.445Z,6324
2017-09-01T08:36:04.147Z,6128
2017-09-01T08:37:17.825Z,5800
2017-09-01T08:38:32.001Z,5628
2017-09-01T08:39:45.613Z,5492
2017-09-01T08:40:59.242Z,5540
2017-09-01T08:42:12.977Z,5704
2017-09-01T08:43:27.157Z,5824
2017-09-01T08:44:41.628Z,6000
2017-09-01T08:45:55.332Z,6212
2017-09-01T08:47:08.939Z,6428
2017-09-01T08:48:22.990Z,6432
2017-09-01T08:49:36.629Z,6256
2017-09-01T08:50:50.943Z,6124
2017-09-01T08:52:04.521Z,6100
2017-09-01T08:53:18.146Z,6044
2017-09-01T08:54:32.108Z,6080
2017-09-01T08:55:45.692Z,6008
2017-09-01T08:56:59.746Z,6020
2017-09-01T08:58:13.429Z,6152
2017-09-01T08:59:27.439Z,6296
2017-09-01T09:00:41.390Z,6352
2017-09-01T09:01:54.993Z,6336
2017-09-01T09:03:09.289Z,6404
2017-09-01T09:04:22.947Z,6504
2017-09-01T09:05:36.572Z,6632
2017-09-01T09:06:50.192Z,6688
2017-09-01T09:08:04.114Z,6576
2017-09-01T09:09:18.381Z,6436
2017-09-01T09:10:32.882Z,6272
2017-09-01T09:11:46.512Z,6248
2017-09-01T09:13:00.171Z,6180
2017-09-01T09:14:14.313Z,6168
2017-09-01T09:15:29.197Z,6272
2017-09-01T09:16:42.868Z,6288
2017-09-01T09:17:56.518Z,6472
2017-09-01T09:19:10.113Z,6648
2017-09-01T09:20:23.764Z,6788
2017-09-01T09:21:38.335Z,6744
2017-09-01T09:22:52.012Z,6576
2017-09-01T09:24:06.042Z,6456
2017-09-01T09:25:20.109Z,6308
2017-09-01T09:26:34.059Z,6164
2017-09-01T09:27:48.780Z,5928
2017-09-01T09:29:03.260Z,5816
2017-09-01T09:30:17.190Z,5784
2017-09-01T09:31:30.834Z,5952
2017-09-01T09:34:59.069Z,6652
2017-09-01T09:36:12.699Z,6676
2017-09-01T09:37:26.268Z,6612
2017-09-01T09:38:40.123Z,6612
2017-09-01T09:39:53.665Z,6680
2017-09-01T09:41:07.474Z,6884
2017-09-01T09:42:20.979Z,6936
2017-09-01T09:43:34.713Z,6704
2017-09-01T09:44:48.414Z,6376
2017-09-01T09:46:02.237Z,6012
2017-09-01T09:47:16.118Z,5744
2017-09-01T09:48:29.654Z,5732
2017-09-01T09:49:43.270Z,5752
2017-09-01T09:50:57.470Z,5876
2017-09-01T09:52:11.018Z,6004
2017-09-01T09:53:24.859Z,6172
2017-09-01T09:54:38.383Z,6240
2017-09-01T09:55:51.891Z,6292
2017-09-01T09:57:05.508Z,6260
2017-09-01T09:58:19.347Z,6128
2017-09-01T09:59:45.584Z,5908
2017-09-01T10:00:59.156Z,5820
2017-09-01T10:02:12.740Z,5856
2017-09-01T10:03:26.325Z,5840
2017-09-01T10:04:40.035Z,5740
2017-09-01T10:05:53.933Z,5524
2017-09-01T10:07:07.788Z,5376
2017-09-01T10:08:21.373Z,5316
2017-09-01T10:09:34.985Z,5332
2017-09-01T10:10:48.525Z,5348
2017-09-01T10:12:02.732Z,5268
2017-09-01T10:13:16.266Z,5376
2017-09-01T10:14:29.774Z,5484
2017-09-01T10:15:43.254Z,5456
2017-09-01T10:16:56.873Z,5396
2017-09-01T10:18:11.312Z,5252
2017-09-01T10:19:24.862Z,5204
2017-09-01T10:20:38.413Z,5304
2017-09-01T10:21:51.988Z,5524
2017-09-01T10:23:05.590Z,5776
2017-09-01T10:24:19.572Z,6180
2017-09-01T10:25:33.179Z,6292
2017-09-01T10:26:47.230Z,6380
2017-09-01T10:28:00.802Z,6400
2017-09-01T10:29:14.305Z,6200
2017-09-01T10:30:28.114Z,6032
2017-09-01T10:31:41.684Z,5900
2017-09-01T10:32:55.183Z,5764
2017-09-01T10:34:08.734Z,5788
2017-09-01T10:35:22.539Z,6044
2017-09-01T10:36:36.850Z,6112
2017-09-01T10:37:50.367Z,6044
2017-09-01T10:39:03.924Z,6648
2017-09-01T10:40:17.485Z,6516
2017-09-01T10:41:31.036Z,6692
2017-09-01T10:42:44.964Z,6676
2017-09-01T10:43:58.666Z,6340
2017-09-01T10:45:12.551Z,6284
2017-09-01T10:46:26.165Z,6092
2017-09-01T10:47:39.720Z,5716
2017-09-01T10:48:53.669Z,5524
2017-09-01T10:50:07.271Z,5440
2017-09-01T10:51:21.201Z,5636
2017-09-01T10:52:34.773Z,5900
2017-09-01T10:53:48.673Z,6068
2017-09-01T10:55:02.542Z,6240
2017-09-01T10:56:16.475Z,6324
2017-09-01T10:57:30.727Z,6284
2017-09-01T10:58:44.645Z,6452
2017-09-01T10:59:58.175Z,6656
2017-09-01T11:01:12.123Z,6564
2017-09-01T11:02:25.882Z,6396
2017-09-01T11:03:39.735Z,6032
2017-09-01T11:04:54.322Z,5792
2017-09-01T11:06:08.128Z,6156
2017-09-01T11:07:22.013Z,6280
2017-09-01T11:08:35.558Z,6788
2017-09-01T11:09:49.103Z,7116
2017-09-01T11:11:02.635Z,7060
2017-09-01T11:12:16.488Z,6928
2017-09-01T11:13:30.283Z,6452
2017-09-01T11:14:43.803Z,6184
2017-09-01T11:15:57.362Z,5992
2017-09-01T11:17:10.920Z,5304
2017-09-01T11:18:24.443Z,5128
2017-09-01T11:19:38.246Z,4900
2017-09-01T11:20:51.793Z,4328
2017-09-01T11:22:05.420Z,3892
2017-09-01T11:23:19.272Z,4404
2017-09-01T11:24:32.775Z,4948
2017-09-01T11:25:46.962Z,5284
2017-09-01T11:27:00.533Z,5080
2017-09-01T11:28:15.013Z,4932
2017-09-01T11:29:28.529Z,4836
2017-09-01T11:30:42.102Z,4688
2017-09-01T11:31:55.964Z,4552
2017-09-01T11:33:09.697Z,4628
2017-09-01T11:34:23.904Z,4308
2017-09-01T11:35:39.729Z,4148
2017-09-01T11:36:53.242Z,3988
2017-09-01T11:38:07.114Z,3348
2017-09-01T11:39:20.980Z,3524
2017-09-01T11:40:34.533Z,3800
2017-09-01T11:41:48.070Z,4544
2017-09-01T11:43:01.805Z,4740
2017-09-01T11:44:15.601Z,4608
2017-09-01T11:45:29.151Z,4376
2017-09-01T11:46:43.015Z,3828
2017-09-01T11:47:56.563Z,3388
2017-09-01T11:49:10.304Z,3088
2017-09-01T11:50:24.143Z,2992
2017-09-01T11:51:38.347Z,2848
2017-09-01T11:52:53.923Z,2752
2017-09-01T11:54:08.933Z,2720
2017-09-01T11:55:23.860Z,2716
2017-09-01T11:56:37.710Z,2744
2017-09-01T11:57:51.391Z,2736
2017-09-01T11:59:04.921Z,2648
2017-09-01T12:00:18.791Z,2580
2017-09-01T12:01:32.309Z,2580
2017-09-01T12:02:46.163Z,2632
2017-09-01T12:03:59.709Z,2820
2017-09-01T12:05:13.877Z,2796
2017-09-01T12:06:27.379Z,2680
2017-09-01T12:07:40.897Z,2644
2017-09-01T12:08:55.416Z,2624
2017-09-01T12:10:09.312Z,2556
2017-09-01T12:11:22.846Z,2536
2017-09-01T12:12:36.391Z,2596
2017-09-01T12:13:49.987Z,2772
2017-09-01T12:15:03.827Z,2944
2017-09-01T12:16:17.317Z,3088
2017-09-01T12:17:30.885Z,3148
2017-09-01T12:18:44.466Z,2952
2017-09-01T12:19:58.042Z,2812
2017-09-01T12:21:12.010Z,2524
2017-09-01T12:22:25.966Z,2432
2017-09-01T12:23:39.755Z,2416
2017-09-01T12:24:53.684Z,2432
2017-09-01T12:26:07.901Z,2444
2017-09-01T12:27:22.132Z,2456
2017-09-01T12:28:36.047Z,2476
2017-09-01T12:29:50.213Z,2512
2017-09-01T12:31:03.752Z,2520
2017-09-01T12:32:17.252Z,2536
2017-09-01T12:33:31.183Z,2568
2017-09-01T12:34:45.122Z,2644
2017-09-01T12:35:58.619Z,2696
2017-09-01T12:37:12.235Z,2732
2017-09-01T12:38:25.815Z,2732
2017-09-01T12:39:40.121Z,2668
2017-09-01T12:40:53.696Z,2600
2017-09-01T12:42:07.338Z,2592
2017-09-01T12:43:21.335Z,2484
2017-09-01T12:44:34.970Z,2476
2017-09-01T12:45:49.344Z,2524
2017-09-01T12:47:03.143Z,2536
2017-09-01T12:48:17.216Z,2536
2017-09-01T12:49:30.764Z,2504
2017-09-01T12:50:44.776Z,2592
2017-09-01T12:51:58.619Z,2616
2017-09-01T12:53:12.477Z,2664
2017-09-01T12:54:26.014Z,2692
2017-09-01T12:55:39.753Z,2700
2017-09-01T12:56:53.301Z,2672
2017-09-01T12:58:07.650Z,2616
2017-09-01T12:59:21.173Z,2576
2017-09-01T13:00:35.011Z,2580
2017-09-01T13:01:48.556Z,2628
2017-09-01T13:03:02.621Z,2664
2017-09-01T13:04:16.669Z,2668
2017-09-01T13:05:30.592Z,2708
2017-09-01T13:06:44.382Z,2736
2017-09-01T13:07:57.924Z,2840
2017-09-01T13:09:11.507Z,2800
2017-09-01T13:14:17.044Z,2408
2017-09-01T13:15:30.563Z,2356
2017-09-01T13:16:44.248Z,2340
2017-09-01T13:17:57.804Z,2308
2017-09-01T13:19:11.750Z,2284
2017-09-01T13:20:25.539Z,2256
2017-09-01T13:21:39.129Z,2244
2017-09-01T13:22:53.257Z,2232
2017-09-01T13:24:07.367Z,2224
2017-09-01T13:25:22.189Z,2224
2017-09-01T13:26:35.698Z,2228
2017-09-01T13:27:49.251Z,2216
2017-09-01T13:29:03.004Z,2208
2017-09-01T13:30:16.537Z,2196
2017-09-01T13:31:30.760Z,2180
2017-09-01T13:32:44.306Z,2144
2017-09-01T13:33:57.927Z,1976
2017-09-01T13:35:11.494Z,2164
2017-09-01T13:36:25.016Z,2152
2017-09-01T13:37:38.926Z,2152
2017-09-01T13:38:52.526Z,2152
2017-09-01T13:40:06.050Z,2160
2017-09-01T13:41:19.611Z,2172
2017-09-01T13:42:33.121Z,2196
2017-09-01T13:43:48.090Z,2216
2017-09-01T13:45:02.269Z,2396
2017-09-01T13:46:15.815Z,2652
2017-09-01T13:47:29.357Z,2844
2017-09-01T13:48:43.264Z,2636
2017-09-01T13:49:58.137Z,2388
2017-09-01T13:51:11.982Z,2336
2017-09-01T13:52:25.507Z,2412
2017-09-01T13:53:39.747Z,2488
2017-09-01T13:54:53.732Z,2496
2017-09-01T13:56:07.565Z,2692
2017-09-01T13:57:21.767Z,2800
2017-09-01T13:58:35.367Z,2888
2017-09-01T13:59:49.430Z,3016
2017-09-01T14:01:03.030Z,3248
2017-09-01T14:02:16.909Z,3324
2017-09-01T14:03:30.436Z,3248
2017-09-01T14:04:44.071Z,2992
2017-09-01T14:05:58.041Z,2860
2017-09-01T14:07:11.573Z,2780
2017-09-01T14:08:25.433Z,2704
2017-09-01T14:09:38.969Z,2596
2017-09-01T14:10:52.676Z,2476
2017-09-01T14:12:06.325Z,2440
2017-09-01T14:13:19.931Z,2480
2017-09-01T14:14:33.769Z,2556
2017-09-01T14:15:47.729Z,2632
2017-09-01T14:17:01.483Z,2668
2017-09-01T14:18:15.106Z,2692
2017-09-01T14:19:29.114Z,2676
2017-09-01T14:20:43.012Z,2520
2017-09-01T14:21:56.862Z,2440
2017-09-01T14:23:10.362Z,2484
2017-09-01T14:24:23.889Z,2600
2017-09-01T14:25:37.461Z,2596
2017-09-01T14:26:51.728Z,2796
2017-09-01T14:28:05.597Z,2796
2017-09-01T14:29:19.139Z,2800
2017-09-01T14:30:32.619Z,2828
2017-09-01T14:31:46.362Z,2792
2017-09-01T14:33:00.267Z,2716
2017-09-01T14:34:13.842Z,2724
2017-09-01T14:35:27.388Z,2764
2017-09-01T14:36:40.920Z,2800
2017-09-01T14:37:54.859Z,2880
2017-09-01T14:39:08.702Z,3052
2017-09-01T14:40:22.243Z,3212
2017-09-01T14:41:35.969Z,3768
2017-09-01T14:42:49.534Z,4052
2017-09-01T14:44:03.517Z,4208
2017-09-01T14:45:17.350Z,3628
2017-09-01T14:46:30.869Z,3360
2017-09-01T14:47:44.408Z,3084
2017-09-01T14:48:58.470Z,2692
2017-09-01T14:50:12.347Z,2616
2017-09-01T14:51:26.225Z,2696
2017-09-01T14:52:39.819Z,2576
2017-09-01T14:53:53.801Z,2424
2017-09-01T14:55:07.331Z,2360
2017-09-01T14:56:20.884Z,2400
2017-09-01T14:57:34.986Z,2408
2017-09-01T14:58:48.581Z,2308
2017-09-01T15:00:02.102Z,2196
2017-09-01T15:01:15.891Z,2068
2017-09-01T15:02:29.774Z,2032
2017-09-01T15:03:43.668Z,2004
2017-09-01T15:04:57.430Z,1920
2017-09-01T15:06:10.981Z,1880
2017-09-01T15:07:24.538Z,1848
2017-09-01T15:08:38.126Z,1720
2017-09-01T15:09:52.290Z,1636
2017-09-01T15:11:05.893Z,1644
2017-09-01T15:12:19.405Z,1676
2017-09-01T15:13:33.235Z,1680
2017-09-01T15:14:46.780Z,1708
2017-09-01T15:16:00.998Z,1736
2017-09-01T15:17:14.506Z,1768
2017-09-01T15:18:28.566Z,1848
2017-09-01T15:19:42.170Z,1824
2017-09-01T15:20:56.024Z,1688
2017-09-01T15:22:09.849Z,1664
2017-09-01T15:23:23.490Z,1660
2017-09-01T15:24:37.090Z,1700
2017-09-01T15:25:51.268Z,1760
2017-09-01T15:27:04.937Z,1868
2017-09-01T15:28:18.781Z,2016
2017-09-01T15:29:32.445Z,2180
2017-09-01T15:30:46.001Z,2288
2017-09-01T15:31:59.641Z,2376
2017-09-01T15:33:13.221Z,2452
2017-09-01T15:34:27.071Z,2612
2017-09-01T15:35:40.608Z,2884
2017-09-01T15:36:54.222Z,3108
2017-09-01T15:38:08.090Z,3356
2017-09-01T15:39:22.167Z,3292
2017-09-01T15:40:36.482Z,3120
2017-09-01T15:41:50.006Z,3172
2017-09-01T15:43:18.339Z,3056
2017-09-01T15:44:32.406Z,2852
2017-09-01T15:45:46.113Z,2592
2017-09-01T15:47:00.177Z,2472
2017-09-01T15:48:14.054Z,2228
2017-09-01T15:49:27.550Z,2068
2017-09-01T15:50:41.134Z,2084
2017-09-01T15:51:54.905Z,2276
2017-09-01T15:53:08.702Z,2528
2017-09-01T15:54:22.299Z,2584
2017-09-01T15:55:35.851Z,2612
2017-09-01T15:56:49.353Z,2396
2017-09-01T15:58:02.918Z,2176
2017-09-01T15:59:16.846Z,2004
2017-09-01T16:00:30.364Z,1912
2017-09-01T16:01:43.975Z,1872
2017-09-01T16:02:57.497Z,1892
2017-09-01T16:04:11.370Z,1844
2017-09-01T16:05:25.348Z,1712
2017-09-01T16:06:38.876Z,1580
2017-09-01T16:07:52.412Z,1524
2017-09-01T16:09:06.004Z,1504
2017-09-01T16:10:20.061Z,1500
2017-09-01T16:11:33.903Z,1492
2017-09-01T16:12:47.523Z,1468
2017-09-01T16:14:01.141Z,1440
2017-09-01T16:15:14.667Z,1416
2017-09-01T16:16:28.200Z,1392
2017-09-01T16:17:41.998Z,1372
2017-09-01T16:18:55.541Z,1356
2017-09-01T16:20:09.384Z,1348
2017-09-01T16:21:23.069Z,1336
2017-09-01T16:22:36.685Z,1324
2017-09-01T16:23:50.554Z,1320
2017-09-01T16:25:04.173Z,1312
2017-09-01T16:26:18.034Z,1300
2017-09-01T16:27:31.572Z,1284
2017-09-01T16:28:45.106Z,1272
2017-09-01T16:29:59.018Z,1264
2017-09-01T16:31:12.573Z,1268
2017-09-01T16:35:00.147Z,1232
2017-09-01T16:36:14.196Z,1176
2017-09-01T16:37:27.885Z,1168
2017-09-01T16:38:41.588Z,1192
2017-09-01T16:39:55.627Z,1164
2017-09-01T16:41:09.999Z,1128
2017-09-01T16:42:23.665Z,1128
2017-09-01T16:43:37.310Z,1124
2017-09-01T16:44:51.486Z,1128
2017-09-01T16:46:05.530Z,1128
2017-09-01T16:47:19.420Z,1108
2017-09-01T16:48:33.291Z,1096
2017-09-01T16:49:46.904Z,1092
2017-09-01T16:51:00.572Z,1088
2017-09-01T16:52:14.273Z,1084
2017-09-01T16:54:57.535Z,1056
2017-09-01T16:56:11.186Z,1036
2017-09-01T16:57:25.108Z,1020
2017-09-01T16:58:39.003Z,996
2017-09-01T16:59:52.624Z,984
2017-09-01T17:01:06.568Z,988
2017-09-01T17:02:20.175Z,976